createdAt,value
2019-03-30T00:01:07.295Z,60.26
2019-03-30T00:03:37.396Z,60.38
2019-03-30T00:06:07.452Z,60.37
2019-03-30T00:08:37.558Z,60.74
2019-03-30T00:11:07.614Z,61.18
2019-03-30T00:13:37.683Z,61.23
2019-03-30T00:16:07.737Z,61.53
2019-03-30T00:18:41.100Z,60.96
2019-03-30T00:21:09.589Z,60.76
2019-03-30T00:23:39.650Z,60.66
2019-03-30T00:26:09.749Z,60.75
2019-03-30T00:28:39.815Z,61.38
2019-03-30T00:31:09.909Z,61.31
2019-03-30T00:33:39.968Z,61.16
2019-03-30T00:36:10.066Z,60.68
2019-03-30T00:38:40.126Z,60.51
2019-03-30T00:41:10.209Z,60.32
2019-03-30T00:43:40.296Z,60.20
2019-03-30T00:46:10.403Z,59.92
2019-03-30T00:48:40.468Z,59.79
2019-03-30T00:51:10.544Z,59.92
2019-03-30T00:53:40.635Z,59.97
2019-03-30T00:56:10.864Z,59.82
2019-03-30T00:58:40.874Z,59.82
2019-03-30T01:01:11.042Z,59.92
2019-03-30T01:03:41.111Z,60.16
2019-03-30T01:06:11.201Z,59.73
2019-03-30T01:08:41.257Z,59.60
2019-03-30T01:11:11.351Z,59.73
2019-03-30T01:13:41.414Z,59.87
2019-03-30T01:16:11.509Z,60.26
2019-03-30T01:18:41.644Z,60.28
2019-03-30T01:21:11.714Z,60.43
2019-03-30T01:23:41.845Z,60.89
2019-03-30T01:26:11.998Z,61.18
2019-03-30T01:28:42.057Z,61.39
2019-03-30T01:31:12.115Z,61.71
2019-03-30T01:33:42.194Z,62.00
2019-03-30T01:36:12.262Z,62.07
2019-03-30T01:38:42.329Z,61.71
2019-03-30T01:41:12.407Z,61.29
2019-03-30T01:43:43.444Z,61.29
2019-03-30T01:46:13.523Z,61.33
2019-03-30T01:48:44.660Z,61.77
2019-03-30T01:51:15.571Z,62.05
2019-03-30T01:53:45.633Z,62.19
2019-03-30T01:56:15.743Z,62.22
2019-03-30T01:58:45.800Z,61.87
2019-03-30T02:01:15.885Z,61.30
2019-03-30T02:03:45.943Z,61.01
2019-03-30T02:06:16.042Z,60.77
2019-03-30T02:08:46.092Z,60.63
2019-03-30T02:11:16.192Z,60.84
2019-03-30T02:13:46.257Z,60.55
2019-03-30T02:16:16.355Z,60.68
2019-03-30T02:18:46.505Z,61.45
2019-03-30T02:21:16.638Z,61.43
2019-03-30T02:23:46.728Z,61.32
2019-03-30T02:26:16.792Z,60.93
2019-03-30T02:28:46.875Z,60.88
2019-03-30T02:31:16.925Z,60.82
2019-03-30T02:33:47.080Z,60.85
2019-03-30T02:36:17.219Z,61.12
2019-03-30T02:38:47.384Z,60.91
2019-03-30T02:41:17.478Z,60.73
2019-03-30T02:43:47.566Z,60.96
2019-03-30T02:46:17.627Z,60.87
2019-03-30T02:48:47.724Z,61.43
2019-03-30T02:51:17.810Z,61.57
2019-03-30T02:53:47.885Z,61.63
2019-03-30T02:56:17.990Z,61.62
2019-03-30T02:58:48.075Z,61.94
2019-03-30T03:01:18.136Z,62.24
2019-03-30T03:03:48.221Z,62.50
2019-03-30T03:06:18.319Z,62.26
2019-03-30T03:08:48.400Z,61.98
2019-03-30T03:11:18.451Z,61.34
2019-03-30T03:13:48.532Z,61.28
2019-03-30T03:16:18.589Z,61.34
2019-03-30T03:18:48.684Z,60.95
2019-03-30T03:21:18.749Z,60.81
2019-03-30T03:23:48.841Z,60.70
2019-03-30T03:26:19.397Z,60.73
2019-03-30T03:28:49.452Z,60.46
2019-03-30T03:31:19.562Z,60.42
2019-03-30T03:33:49.775Z,60.96
2019-03-30T03:36:19.857Z,61.04
2019-03-30T03:38:49.930Z,61.10
2019-03-30T03:41:19.999Z,61.51
2019-03-30T03:43:50.063Z,61.64
2019-03-30T03:46:20.127Z,61.48
2019-03-30T03:48:50.204Z,61.38
2019-03-30T03:51:26.137Z,61.42
2019-03-30T03:53:52.880Z,61.44
2019-03-30T03:56:25.249Z,61.40
2019-03-30T03:58:57.525Z,61.13
2019-03-30T04:01:28.389Z,61.05
2019-03-30T04:03:58.528Z,61.05
2019-03-30T04:06:28.987Z,61.20
2019-03-30T04:09:00.438Z,61.50
2019-03-30T04:11:32.248Z,61.19
2019-03-30T04:14:05.003Z,61.39
2019-03-30T04:16:35.065Z,61.51
2019-03-30T04:19:05.158Z,61.58
2019-03-30T04:21:43.594Z,61.29
2019-03-30T04:24:06.996Z,61.14
2019-03-30T04:26:37.063Z,61.20
2019-03-30T04:29:07.129Z,60.95
2019-03-30T04:31:37.191Z,60.85
2019-03-30T04:34:07.262Z,60.83
2019-03-30T04:36:37.327Z,60.93
2019-03-30T04:39:08.474Z,61.09
2019-03-30T04:41:38.547Z,61.35
2019-03-30T04:44:08.632Z,61.29
2019-03-30T04:46:39.668Z,61.26
2019-03-30T04:49:09.765Z,61.03
2019-03-30T04:51:39.834Z,60.90
2019-03-30T04:54:09.918Z,60.59
2019-03-30T04:56:39.995Z,60.72
2019-03-30T04:59:11.116Z,61.20
2019-03-30T05:01:41.222Z,61.11
2019-03-30T05:04:11.281Z,61.02
2019-03-30T05:06:41.370Z,61.44
2019-03-30T05:09:11.424Z,61.48
2019-03-30T05:11:41.511Z,61.42
2019-03-30T05:14:11.575Z,61.65
2019-03-30T05:16:41.674Z,61.81
2019-03-30T05:19:11.720Z,61.62
2019-03-30T05:21:41.881Z,61.39
2019-03-30T05:24:11.943Z,61.47
2019-03-30T05:26:41.996Z,61.37
2019-03-30T05:29:12.063Z,61.14
2019-03-30T05:31:42.130Z,60.94
2019-03-30T05:34:12.199Z,60.98
2019-03-30T05:36:42.277Z,61.08
2019-03-30T05:39:12.349Z,60.99
2019-03-30T05:41:42.415Z,61.07
2019-03-30T05:44:12.494Z,61.08
2019-03-30T05:46:42.551Z,60.96
2019-03-30T05:49:12.625Z,60.87
2019-03-30T05:51:42.699Z,60.80
2019-03-30T05:54:12.773Z,60.46
2019-03-30T05:56:42.853Z,60.41
2019-03-30T05:59:12.965Z,60.38
2019-03-30T06:01:43.035Z,60.49
2019-03-30T06:04:13.136Z,61.08
2019-03-30T06:06:43.206Z,61.57
2019-03-30T06:09:13.297Z,61.88
2019-03-30T06:11:43.377Z,61.95
2019-03-30T06:14:13.468Z,61.96
2019-03-30T06:16:43.535Z,62.19
2019-03-30T06:19:13.599Z,62.26
2019-03-30T06:21:43.680Z,62.33
2019-03-30T06:24:13.742Z,62.71
2019-03-30T06:26:43.840Z,63.00
2019-03-30T06:29:13.946Z,63.32
2019-03-30T06:31:46.660Z,63.16
2019-03-30T06:34:16.798Z,63.09
2019-03-30T06:36:46.861Z,63.35
2019-03-30T06:39:17.938Z,64.12
2019-03-30T06:41:48.016Z,64.15
2019-03-30T06:44:18.116Z,64.63
2019-03-30T06:46:48.172Z,64.69
2019-03-30T06:49:18.289Z,64.78
2019-03-30T06:51:48.369Z,64.80
2019-03-30T06:54:18.462Z,64.66
2019-03-30T06:56:48.525Z,64.84
2019-03-30T06:59:18.698Z,64.98
2019-03-30T07:01:48.800Z,64.95
2019-03-30T07:04:18.959Z,64.58
2019-03-30T07:06:49.322Z,63.91
2019-03-30T07:09:21.407Z,63.88
2019-03-30T07:11:51.592Z,63.74
2019-03-30T07:14:23.127Z,63.28
2019-03-30T07:16:55.406Z,63.56
2019-03-30T07:19:27.102Z,63.09
2019-03-30T07:21:57.222Z,62.65
2019-03-30T07:24:27.309Z,63.06
2019-03-30T07:26:57.456Z,63.12
2019-03-30T07:29:27.582Z,62.47
2019-03-30T07:31:57.646Z,62.29
2019-03-30T07:34:27.752Z,61.83
2019-03-30T07:36:57.818Z,60.74
2019-03-30T07:39:29.016Z,60.14
2019-03-30T07:41:59.097Z,59.75
2019-03-30T07:44:29.224Z,60.04
2019-03-30T07:46:59.360Z,60.01
2019-03-30T07:49:29.432Z,60.24
2019-03-30T07:51:59.514Z,59.51
2019-03-30T07:54:29.751Z,58.81
2019-03-30T07:57:06.170Z,58.93
2019-03-30T07:59:31.601Z,57.83
2019-03-30T08:02:01.703Z,58.04
2019-03-30T08:04:31.764Z,58.25
2019-03-30T08:07:01.919Z,56.63
2019-03-30T08:09:31.991Z,57.05
2019-03-30T08:12:02.101Z,57.55
2019-03-30T08:14:32.154Z,58.91
2019-03-30T08:17:02.255Z,58.10
2019-03-30T08:19:32.319Z,57.57
2019-03-30T08:22:02.393Z,57.98
2019-03-30T08:24:32.481Z,57.26
2019-03-30T08:27:02.596Z,56.13
2019-03-30T08:29:32.677Z,56.59
2019-03-30T08:32:02.812Z,55.53
2019-03-30T08:34:33.975Z,55.82
2019-03-30T08:37:04.035Z,56.80
2019-03-30T08:39:34.162Z,57.13
2019-03-30T08:42:04.239Z,57.07
2019-03-30T08:44:34.327Z,55.06
2019-03-30T08:47:04.445Z,54.16
2019-03-30T08:49:34.549Z,54.03
2019-03-30T08:52:04.642Z,53.26
2019-03-30T08:54:34.765Z,53.27
2019-03-30T08:57:04.969Z,51.93
2019-03-30T08:59:35.112Z,51.57
2019-03-30T09:02:05.163Z,52.93
2019-03-30T09:04:35.250Z,52.50
2019-03-30T09:07:05.606Z,52.38
2019-03-30T09:09:35.713Z,50.97
2019-03-30T09:12:05.781Z,51.37
2019-03-30T09:14:35.846Z,51.34
2019-03-30T09:17:05.954Z,50.47
2019-03-30T09:19:36.032Z,50.55
2019-03-30T09:22:06.097Z,50.30
2019-03-30T09:24:36.171Z,49.37
2019-03-30T09:27:06.240Z,50.54
2019-03-30T09:29:36.343Z,49.99
2019-03-30T09:32:14.296Z,49.36
2019-03-30T09:34:38.266Z,49.00
2019-03-30T09:37:08.370Z,48.99
2019-03-30T09:39:38.438Z,51.05
2019-03-30T09:42:08.553Z,49.87
2019-03-30T09:44:38.627Z,48.71
2019-03-30T09:47:08.769Z,49.21
2019-03-30T09:49:38.942Z,48.60
2019-03-30T09:52:09.102Z,48.70
2019-03-30T09:54:39.191Z,48.53
2019-03-30T09:57:10.240Z,48.23
2019-03-30T09:59:40.465Z,49.20
2019-03-30T10:02:10.575Z,48.38
2019-03-30T10:04:41.067Z,48.22
2019-03-30T10:07:11.122Z,48.06
2019-03-30T10:09:41.186Z,48.25
2019-03-30T10:12:11.276Z,47.08
2019-03-30T10:14:41.332Z,47.50
2019-03-30T10:17:11.443Z,47.65
2019-03-30T10:19:41.594Z,46.39
2019-03-30T10:22:11.666Z,46.61
2019-03-30T10:24:41.777Z,46.18
2019-03-30T10:27:11.819Z,46.22
2019-03-30T10:29:41.929Z,45.66
2019-03-30T10:32:12.011Z,45.25
2019-03-30T10:34:42.074Z,46.09
2019-03-30T10:37:12.223Z,45.49
2019-03-30T10:39:42.300Z,45.76
2019-03-30T10:42:12.409Z,45.66
2019-03-30T10:44:42.519Z,45.22
2019-03-30T10:47:12.662Z,44.99
2019-03-30T10:49:42.720Z,44.98
2019-03-30T10:52:12.902Z,44.63
2019-03-30T10:54:52.695Z,44.28
2019-03-30T10:57:14.773Z,45.03
2019-03-30T10:59:44.879Z,44.78
2019-03-30T11:02:15.657Z,43.43
2019-03-30T11:04:45.718Z,44.77
2019-03-30T11:07:15.827Z,43.39
2019-03-30T11:09:49.333Z,42.98
2019-03-30T11:12:18.899Z,43.57
2019-03-30T11:14:48.973Z,42.97
2019-03-30T11:17:19.571Z,43.53
2019-03-30T11:19:49.943Z,42.57
2019-03-30T11:22:20.182Z,43.94
2019-03-30T11:24:50.289Z,43.03
2019-03-30T11:27:21.328Z,43.41
2019-03-30T11:29:51.410Z,43.05
2019-03-30T11:32:21.506Z,41.87
2019-03-30T11:34:51.769Z,41.84
2019-03-30T11:37:22.938Z,42.65
2019-03-30T11:39:53.992Z,41.72
2019-03-30T11:42:24.084Z,41.23
2019-03-30T11:44:54.287Z,41.02
2019-03-30T11:47:25.506Z,41.09
2019-03-30T11:49:55.634Z,41.79
2019-03-30T11:52:25.738Z,40.54
2019-03-30T11:54:55.828Z,41.61
2019-03-30T11:57:25.936Z,41.29
2019-03-30T11:59:56.036Z,41.35
2019-03-30T12:02:28.195Z,41.06
2019-03-30T12:04:57.912Z,41.21
2019-03-30T12:07:27.970Z,40.48
2019-03-30T12:09:58.041Z,40.33
2019-03-30T12:12:28.127Z,39.81
2019-03-30T12:14:58.221Z,37.90
2019-03-30T12:17:28.282Z,38.88
2019-03-30T12:19:58.406Z,38.53
2019-03-30T12:22:28.477Z,38.63
2019-03-30T12:24:59.161Z,38.40
2019-03-30T12:27:29.234Z,38.14
2019-03-30T12:29:59.296Z,37.81
2019-03-30T12:32:29.404Z,37.07
2019-03-30T12:34:59.542Z,37.20
2019-03-30T12:37:29.613Z,36.68
2019-03-30T12:39:59.733Z,37.75
2019-03-30T12:42:29.786Z,37.16
2019-03-30T12:44:59.851Z,36.82
2019-03-30T12:47:31.113Z,38.36
2019-03-30T12:50:01.226Z,37.50
2019-03-30T12:52:32.286Z,37.72
2019-03-30T12:55:02.383Z,37.80
2019-03-30T12:57:32.546Z,36.33
2019-03-30T13:00:02.655Z,36.98
2019-03-30T13:02:33.709Z,35.92
2019-03-30T13:05:07.509Z,36.66
2019-03-30T13:07:37.114Z,36.76
2019-03-30T13:10:07.615Z,36.24
2019-03-30T13:12:37.741Z,36.03
2019-03-30T13:15:08.173Z,36.36
2019-03-30T13:17:38.305Z,35.73
2019-03-30T13:20:08.512Z,35.91
2019-03-30T13:22:38.667Z,35.56
2019-03-30T13:25:09.038Z,36.04
2019-03-30T13:27:39.115Z,35.82
2019-03-30T13:30:09.832Z,36.99
2019-03-30T13:32:39.915Z,37.71
2019-03-30T13:35:10.104Z,37.00
2019-03-30T13:37:40.203Z,36.35
2019-03-30T13:40:10.590Z,36.54
2019-03-30T13:42:40.682Z,36.90
2019-03-30T13:45:11.829Z,37.13
2019-03-30T13:47:41.902Z,37.28
2019-03-30T13:50:12.050Z,37.35
2019-03-30T13:52:42.194Z,36.43
2019-03-30T13:55:12.345Z,36.80
2019-03-30T13:57:42.416Z,37.15
2019-03-30T14:00:12.647Z,36.73
2019-03-30T14:02:44.135Z,36.48
2019-03-30T14:05:14.438Z,36.63
2019-03-30T14:07:44.519Z,36.27
2019-03-30T14:10:14.907Z,36.35
2019-03-30T14:12:45.030Z,35.43
2019-03-30T14:15:15.106Z,34.33
2019-03-30T14:17:45.176Z,34.56
2019-03-30T14:20:15.324Z,34.09
2019-03-30T14:22:45.433Z,35.33
2019-03-30T14:25:16.186Z,35.80
2019-03-30T14:27:46.267Z,36.36
2019-03-30T14:30:16.503Z,35.54
2019-03-30T14:32:46.568Z,36.00
2019-03-30T14:35:16.664Z,35.90
2019-03-30T14:37:46.743Z,36.10
2019-03-30T14:40:16.872Z,36.36
2019-03-30T14:42:46.933Z,35.85
2019-03-30T14:45:17.060Z,36.18
2019-03-30T14:47:47.215Z,36.54
2019-03-30T14:50:17.424Z,35.74
2019-03-30T14:52:47.595Z,36.24
2019-03-30T14:55:18.752Z,36.01
2019-03-30T14:57:48.912Z,35.93
2019-03-30T15:00:19.114Z,35.91
2019-03-30T15:02:49.477Z,36.03
2019-03-30T15:05:19.600Z,36.09
2019-03-30T15:07:49.781Z,35.42
2019-03-30T15:10:19.867Z,34.85
2019-03-30T15:12:50.239Z,35.09
2019-03-30T15:15:20.316Z,34.90
2019-03-30T15:17:50.534Z,35.19
2019-03-30T15:20:20.612Z,34.75
2019-03-30T15:22:50.888Z,35.33
2019-03-30T15:25:20.988Z,35.20
2019-03-30T15:27:51.130Z,35.19
2019-03-30T15:30:21.237Z,35.15
2019-03-30T15:32:51.383Z,35.35
2019-03-30T15:35:21.495Z,35.36
2019-03-30T15:37:51.706Z,33.90
2019-03-30T15:40:21.832Z,33.84
2019-03-30T15:42:51.929Z,33.95
2019-03-30T15:45:22.134Z,33.76
2019-03-30T15:47:52.228Z,34.14
2019-03-30T15:50:22.367Z,35.11
2019-03-30T15:52:52.540Z,34.91
2019-03-30T15:55:22.618Z,35.16
2019-03-30T15:57:52.702Z,34.77
2019-03-30T16:00:23.757Z,35.03
2019-03-30T16:02:53.826Z,34.75
2019-03-30T16:05:23.989Z,34.41
2019-03-30T16:07:54.182Z,34.23
2019-03-30T16:10:24.282Z,34.29
2019-03-30T16:12:54.418Z,33.75
2019-03-30T16:15:24.485Z,33.65
2019-03-30T16:17:54.604Z,33.83
2019-03-30T16:20:24.745Z,34.29
2019-03-30T16:22:54.846Z,34.02
2019-03-30T16:25:24.979Z,33.59
2019-03-30T16:27:55.100Z,33.24
2019-03-30T16:30:25.260Z,33.39
2019-03-30T16:32:55.359Z,33.74
2019-03-30T16:35:25.419Z,34.20
2019-03-30T16:37:55.508Z,34.25
2019-03-30T16:40:25.623Z,34.32
2019-03-30T16:42:55.704Z,33.87
2019-03-30T16:45:25.788Z,33.48
2019-03-30T16:47:55.901Z,32.80
2019-03-30T16:50:25.978Z,33.25
2019-03-30T16:52:56.049Z,33.14
2019-03-30T16:55:26.138Z,33.07
2019-03-30T16:57:56.206Z,33.17
2019-03-30T17:00:26.283Z,33.36
2019-03-30T17:02:56.380Z,33.65
2019-03-30T17:05:26.461Z,33.11
2019-03-30T17:07:56.580Z,33.34
2019-03-30T17:10:26.705Z,33.16
2019-03-30T17:12:56.808Z,33.10
2019-03-30T17:15:26.878Z,33.47
2019-03-30T17:17:57.039Z,33.62
2019-03-30T17:20:28.079Z,33.50
2019-03-30T17:22:59.023Z,33.60
2019-03-30T17:25:29.227Z,33.65
2019-03-30T17:27:59.344Z,33.71
2019-03-30T17:30:29.530Z,33.81
2019-03-30T17:32:59.649Z,33.88
2019-03-30T17:35:29.740Z,34.07
2019-03-30T17:37:59.926Z,34.43
2019-03-30T17:40:30.063Z,34.41
2019-03-30T17:43:00.242Z,34.65
2019-03-30T17:45:31.956Z,34.80
2019-03-30T17:48:02.086Z,34.62
2019-03-30T17:50:32.177Z,34.78
2019-03-30T17:53:03.234Z,34.95
2019-03-30T17:55:34.299Z,34.78
2019-03-30T17:58:12.934Z,35.09
2019-03-30T18:00:36.670Z,35.20
2019-03-30T18:03:06.812Z,35.56
2019-03-30T18:05:36.899Z,35.48
2019-03-30T18:08:07.052Z,35.87
2019-03-30T18:10:37.171Z,36.05
2019-03-30T18:13:07.994Z,36.38
2019-03-30T18:15:38.106Z,36.35
2019-03-30T18:18:08.327Z,36.86
2019-03-30T18:20:38.410Z,37.13
2019-03-30T18:23:09.610Z,37.49
2019-03-30T18:25:39.695Z,37.85
2019-03-30T18:28:09.819Z,38.54
2019-03-30T18:30:41.146Z,38.92
2019-03-30T18:33:11.318Z,39.24
2019-03-30T18:35:41.494Z,39.51
2019-03-30T18:38:13.129Z,40.57
2019-03-30T18:40:43.550Z,40.83
2019-03-30T18:43:13.919Z,40.67
2019-03-30T18:45:44.085Z,40.34
2019-03-30T18:48:15.500Z,40.47
2019-03-30T18:50:46.924Z,40.54
2019-03-30T18:53:18.169Z,40.88
2019-03-30T18:55:48.308Z,41.25
2019-03-30T18:58:18.515Z,41.56
2019-03-30T19:00:48.617Z,42.13
2019-03-30T19:03:20.287Z,41.90
2019-03-30T19:05:50.641Z,42.67
2019-03-30T19:08:20.752Z,42.52
2019-03-30T19:10:50.876Z,42.51
2019-03-30T19:13:20.989Z,42.81
2019-03-30T19:15:51.236Z,43.37
2019-03-30T19:18:21.345Z,43.68
2019-03-30T19:20:51.611Z,43.80
2019-03-30T19:23:21.674Z,44.12
2019-03-30T19:25:51.888Z,44.04
2019-03-30T19:28:22.002Z,44.25
2019-03-30T19:30:53.064Z,44.00
2019-03-30T19:33:23.175Z,44.04
2019-03-30T19:35:53.375Z,44.40
2019-03-30T19:38:23.526Z,44.60
2019-03-30T19:40:53.685Z,44.51
2019-03-30T19:43:23.797Z,44.53
2019-03-30T19:45:53.982Z,44.51
2019-03-30T19:48:24.063Z,44.82
2019-03-30T19:50:54.172Z,44.84
2019-03-30T19:53:24.344Z,44.32
2019-03-30T19:55:54.523Z,44.30
2019-03-30T19:58:24.679Z,43.89
2019-03-30T20:00:54.841Z,43.87
2019-03-30T20:03:24.948Z,43.40
2019-03-30T20:05:55.033Z,43.64
2019-03-30T20:08:25.179Z,44.12
2019-03-30T20:10:55.257Z,44.56
2019-03-30T20:13:25.368Z,44.97
2019-03-30T20:15:55.622Z,45.45
2019-03-30T20:18:25.724Z,45.74
2019-03-30T20:20:55.819Z,45.93
2019-03-30T20:23:25.994Z,46.28
2019-03-30T20:25:56.071Z,46.24
2019-03-30T20:28:26.156Z,46.54
2019-03-30T20:30:56.495Z,46.54
2019-03-30T20:33:26.610Z,46.53
2019-03-30T20:35:56.763Z,46.59
2019-03-30T20:38:26.830Z,46.73
2019-03-30T20:40:56.928Z,46.70
2019-03-30T20:43:27.037Z,47.05
2019-03-30T20:45:57.144Z,47.07
2019-03-30T20:48:27.220Z,47.37
2019-03-30T20:50:57.307Z,47.52
2019-03-30T20:53:27.379Z,47.40
2019-03-30T20:55:57.496Z,47.83
2019-03-30T20:58:27.566Z,48.16
2019-03-30T21:00:57.660Z,48.29
2019-03-30T21:03:27.792Z,48.54
2019-03-30T21:05:57.858Z,48.87
2019-03-30T21:08:28.074Z,49.16
2019-03-30T21:10:59.241Z,49.51
2019-03-30T21:13:29.427Z,49.70
2019-03-30T21:15:59.546Z,49.73
2019-03-30T21:18:29.663Z,49.80
2019-03-30T21:20:59.777Z,49.86
2019-03-30T21:23:29.923Z,49.75
2019-03-30T21:26:00.008Z,49.84
2019-03-30T21:28:30.122Z,50.00
2019-03-30T21:31:02.378Z,50.18
2019-03-30T21:33:32.587Z,50.15
2019-03-30T21:36:02.679Z,50.25
2019-03-30T21:38:32.859Z,50.05
2019-03-30T21:41:02.962Z,49.95
2019-03-30T21:43:33.099Z,50.25
2019-03-30T21:46:03.219Z,50.33
2019-03-30T21:48:33.319Z,50.15
2019-03-30T21:51:03.399Z,50.22
2019-03-30T21:53:33.534Z,50.51
2019-03-30T21:56:04.328Z,50.53
2019-03-30T21:58:34.630Z,50.56
2019-03-30T22:01:04.747Z,50.33
2019-03-30T22:03:34.902Z,50.61
2019-03-30T22:06:05.087Z,50.65
2019-03-30T22:08:35.268Z,50.38
2019-03-30T22:11:06.006Z,50.79
2019-03-30T22:13:36.090Z,51.00
2019-03-30T22:16:06.286Z,50.92
2019-03-30T22:18:36.374Z,51.13
2019-03-30T22:21:06.573Z,51.10
2019-03-30T22:23:36.747Z,51.29
2019-03-30T22:26:06.871Z,51.58
2019-03-30T22:28:36.936Z,51.76
2019-03-30T22:31:07.126Z,51.89
2019-03-30T22:33:37.187Z,51.81
2019-03-30T22:36:07.353Z,51.63
2019-03-30T22:38:37.417Z,51.61
2019-03-30T22:41:07.544Z,51.68
2019-03-30T22:43:37.626Z,51.88
2019-03-30T22:46:07.924Z,52.05
2019-03-30T22:48:38.116Z,52.27
2019-03-30T22:51:08.312Z,52.32
2019-03-30T22:53:38.379Z,52.46
2019-03-30T22:56:08.538Z,52.45
2019-03-30T22:58:38.744Z,52.40
2019-03-30T23:01:11.668Z,52.47
2019-03-30T23:03:43.448Z,52.65
2019-03-30T23:06:13.838Z,52.53
2019-03-30T23:08:43.900Z,52.49
2019-03-30T23:11:14.071Z,52.79
2019-03-30T23:13:44.103Z,53.02
2019-03-30T23:16:14.219Z,53.31
2019-03-30T23:18:45.415Z,53.10
2019-03-30T23:21:16.116Z,53.30
2019-03-30T23:23:46.210Z,53.25
2019-03-30T23:26:16.284Z,53.13
2019-03-30T23:28:46.380Z,53.55
2019-03-30T23:31:16.452Z,53.20
2019-03-30T23:33:46.559Z,53.44
2019-03-30T23:36:16.644Z,53.43
2019-03-30T23:38:46.785Z,53.86
2019-03-30T23:41:17.923Z,54.15
2019-03-30T23:43:48.027Z,54.03
2019-03-30T23:46:18.095Z,54.02
2019-03-30T23:48:48.201Z,53.76
2019-03-30T23:51:18.281Z,53.98
2019-03-30T23:53:49.353Z,54.13
2019-03-30T23:56:21.986Z,54.18
2019-03-30T23:58:52.226Z,53.99
